createdAt,value
2018-12-26T00:02:14.907Z,39.78
2018-12-26T00:03:38.956Z,37.98
2018-12-26T00:04:43.858Z,36.90
2018-12-26T00:07:12.699Z,39.60
2018-12-26T00:08:18.218Z,37.35
2018-12-26T00:09:23.130Z,38.23
2018-12-26T00:11:52.352Z,39.50
2018-12-26T00:12:57.257Z,36.77
2018-12-26T00:14:02.531Z,38.30
2018-12-26T00:15:26.588Z,40.55
2018-12-26T00:16:50.706Z,37.53
2018-12-26T00:17:55.632Z,38.20
2018-12-26T00:20:24.509Z,40.08
2018-12-26T00:21:29.417Z,35.60
2018-12-26T00:22:34.334Z,35.33
2018-12-26T00:23:39.243Z,41.85
2018-12-26T00:24:44.732Z,36.08
2018-12-26T00:25:49.658Z,34.73
2018-12-26T00:28:39.497Z,35.10
2018-12-26T00:29:44.703Z,39.27
2018-12-26T00:30:49.686Z,42.23
2018-12-26T00:31:54.608Z,42.62
2018-12-26T00:32:59.513Z,40.55
2018-12-26T00:35:28.375Z,36.98
2018-12-26T00:36:33.281Z,41.35
2018-12-26T00:37:38.192Z,39.55
2018-12-26T00:38:43.116Z,37.95
2018-12-26T00:40:00.324Z,41.18
2018-12-26T00:41:05.309Z,43.33
2018-12-26T00:43:52.021Z,35.55
2018-12-26T00:44:57.178Z,40.03
2018-12-26T00:46:21.155Z,37.65
2018-12-26T00:47:26.081Z,36.40
2018-12-26T00:48:30.981Z,37.55
2018-12-26T00:49:35.939Z,37.10
2018-12-26T00:53:28.748Z,47.33
2018-12-26T00:55:57.617Z,46.75
2018-12-26T00:57:02.867Z,37.67
2018-12-26T00:58:07.768Z,38.73
2018-12-26T00:59:12.744Z,43.17
2018-12-26T01:00:17.660Z,44.58
2018-12-26T01:01:22.576Z,37.28
2018-12-26T01:02:27.489Z,37.70
2018-12-26T01:04:56.676Z,36.68
2018-12-26T01:07:25.543Z,37.23
2018-12-26T01:08:30.491Z,36.63
2018-12-26T01:13:47.238Z,42.90
2018-12-26T01:14:52.146Z,36.53
2018-12-26T01:17:46.008Z,45.10
2018-12-26T01:18:50.921Z,37.65
2018-12-26T01:19:55.842Z,39.42
2018-12-26T01:22:42.189Z,38.00
2018-12-26T01:23:47.089Z,38.73
2018-12-26T01:24:52.326Z,42.62
2018-12-26T01:25:57.248Z,49.42
2018-12-26T01:27:02.162Z,38.08
2018-12-26T01:28:07.076Z,36.48
2018-12-26T01:29:12.243Z,42.25
2018-12-26T01:32:00.195Z,34.55
2018-12-26T01:33:05.121Z,39.20
2018-12-26T01:34:10.032Z,36.77
2018-12-26T01:35:14.940Z,39.85
2018-12-26T01:36:19.846Z,40.00
2018-12-26T01:37:24.768Z,38.42
2018-12-26T01:38:48.799Z,41.30
2018-12-26T01:40:13.424Z,35.78
2018-12-26T01:41:18.716Z,39.03
2018-12-26T01:42:35.394Z,39.42
2018-12-26T01:43:40.301Z,39.25
2018-12-26T01:44:45.561Z,38.15
2018-12-26T01:47:14.413Z,40.80
2018-12-26T01:51:18.415Z,32.85
2018-12-26T01:52:23.323Z,38.28
2018-12-26T01:54:52.174Z,37.93
2018-12-26T01:55:57.093Z,36.30
2018-12-26T01:58:31.806Z,40.45
2018-12-26T01:59:37.034Z,35.25
2018-12-26T02:00:41.949Z,39.70
2018-12-26T02:01:46.855Z,37.53
2018-12-26T02:02:52.121Z,36.28
2018-12-26T02:04:16.234Z,41.92
2018-12-26T02:05:21.497Z,35.33
2018-12-26T02:06:26.482Z,37.73
2018-12-26T02:07:31.403Z,35.15
2018-12-26T02:08:55.444Z,34.33
2018-12-26T02:11:24.299Z,34.03
2018-12-26T02:12:29.210Z,37.50
2018-12-26T02:13:34.117Z,41.10
2018-12-26T02:16:09.573Z,35.75
2018-12-26T02:17:53.092Z,35.80
2018-12-26T02:20:41.138Z,42.98
2018-12-26T02:22:05.186Z,35.52
2018-12-26T02:24:34.033Z,34.25
2018-12-26T02:25:38.932Z,34.70
2018-12-26T02:26:43.834Z,38.15
2018-12-26T02:27:48.761Z,36.00
2018-12-26T02:28:53.660Z,37.05
2018-12-26T02:32:46.748Z,34.23
2018-12-26T02:35:39.599Z,37.03
2018-12-26T02:41:02.378Z,38.60
2018-12-26T02:42:07.624Z,37.83
2018-12-26T02:43:12.543Z,35.92
2018-12-26T02:44:29.551Z,38.60
2018-12-26T02:45:34.809Z,36.48
2018-12-26T02:46:39.869Z,34.63
2018-12-26T02:48:24.949Z,37.42
2018-12-26T02:49:30.205Z,37.33
2018-12-26T02:50:35.260Z,33.78
2018-12-26T02:54:34.881Z,43.38
2018-12-26T02:55:39.791Z,36.13
2018-12-26T02:57:03.929Z,38.50
2018-12-26T02:58:08.849Z,39.45
2018-12-26T03:02:07.687Z,39.08
2018-12-26T03:03:12.574Z,39.83
2018-12-26T03:06:00.643Z,42.15
2018-12-26T03:07:05.630Z,41.37
2018-12-26T03:08:29.728Z,37.20
2018-12-26T03:12:25.044Z,35.43
2018-12-26T03:13:30.040Z,35.58
2018-12-26T03:15:14.612Z,35.78
2018-12-26T03:19:32.425Z,37.08
2018-12-26T03:22:01.282Z,39.33
2018-12-26T03:23:06.209Z,34.35
2018-12-26T03:24:11.391Z,35.43
2018-12-26T03:25:35.496Z,38.40
2018-12-26T03:26:59.460Z,36.20
2018-12-26T03:28:04.372Z,33.02
2018-12-26T03:30:52.298Z,41.55
2018-12-26T03:31:57.196Z,39.10
2018-12-26T03:34:26.050Z,35.10
2018-12-26T03:35:30.957Z,38.20
2018-12-26T03:36:55.400Z,39.80
2018-12-26T03:38:19.360Z,35.73
2018-12-26T03:40:03.928Z,34.78
2018-12-26T03:41:09.214Z,40.67
2018-12-26T03:42:53.942Z,34.85
2018-12-26T03:43:58.869Z,40.28
2018-12-26T03:45:43.448Z,36.75
2018-12-26T03:47:00.457Z,35.35
2018-12-26T03:48:24.584Z,37.40
2018-12-26T03:49:29.584Z,37.45
2018-12-26T03:50:34.563Z,34.18
2018-12-26T03:51:39.940Z,34.78
2018-12-26T03:53:03.920Z,36.68
2018-12-26T03:54:28.049Z,38.13
2018-12-26T03:55:33.280Z,35.55
2018-12-26T03:57:17.843Z,34.27
2018-12-26T03:58:43.436Z,30.27
2018-12-26T04:00:07.577Z,39.25
2018-12-26T04:02:55.638Z,36.05
2018-12-26T04:04:19.613Z,38.17
2018-12-26T04:06:03.122Z,37.00
2018-12-26T04:07:27.108Z,35.63
2018-12-26T04:08:52.029Z,31.23
2018-12-26T04:10:36.603Z,31.45
2018-12-26T04:11:41.518Z,34.85
2018-12-26T04:15:26.954Z,32.63
2018-12-26T04:17:55.907Z,37.48
2018-12-26T04:19:00.910Z,34.10
2018-12-26T04:20:24.989Z,39.80
2018-12-26T04:22:09.565Z,40.78
2018-12-26T04:24:13.792Z,34.13
2018-12-26T04:25:18.754Z,38.95
2018-12-26T04:26:23.658Z,33.85
2018-12-26T04:27:28.872Z,36.08
2018-12-26T04:28:53.233Z,38.70
2018-12-26T04:29:58.485Z,37.95
2018-12-26T04:31:03.396Z,40.28
2018-12-26T04:32:08.294Z,37.73
2018-12-26T04:34:37.396Z,33.67
2018-12-26T04:38:42.702Z,36.75
2018-12-26T04:39:47.606Z,36.73
2018-12-26T04:42:16.460Z,43.23
2018-12-26T04:43:21.708Z,38.67
2018-12-26T04:45:56.710Z,37.38
2018-12-26T04:47:01.575Z,41.65
2018-12-26T04:52:46.739Z,36.50
2018-12-26T04:53:51.667Z,38.63
2018-12-26T04:57:44.709Z,35.63
2018-12-26T04:58:49.641Z,35.43
2018-12-26T04:59:54.545Z,39.27
2018-12-26T05:02:23.413Z,34.48
2018-12-26T05:08:14.134Z,33.50
2018-12-26T05:09:19.057Z,37.10
2018-12-26T05:12:07.227Z,38.50
2018-12-26T05:13:50.844Z,34.27
2018-12-26T05:14:55.833Z,34.25
2018-12-26T05:16:00.738Z,38.35
2018-12-26T05:19:25.897Z,28.70
2018-12-26T05:20:32.997Z,34.18
2018-12-26T05:21:37.918Z,36.03
2018-12-26T05:24:25.900Z,36.00
2018-12-26T05:25:30.893Z,37.05
2018-12-26T05:26:35.948Z,36.00
2018-12-26T05:27:59.932Z,37.75
2018-12-26T05:29:04.917Z,38.60
2018-12-26T05:30:29.032Z,34.40
2018-12-26T05:31:33.956Z,33.83
2018-12-26T05:34:02.818Z,34.48
2018-12-26T05:35:27.134Z,37.13
2018-12-26T05:36:32.387Z,34.05
2018-12-26T05:37:56.373Z,38.73
2018-12-26T05:40:25.290Z,35.92
2018-12-26T05:41:30.191Z,32.03
2018-12-26T05:42:35.445Z,38.85
2018-12-26T05:43:59.495Z,35.35
2018-12-26T05:46:28.684Z,29.98
2018-12-26T05:47:33.589Z,38.78
2018-12-26T05:48:38.501Z,37.80
2018-12-26T05:49:43.706Z,29.10
2018-12-26T05:51:07.828Z,36.75
2018-12-26T05:52:12.838Z,28.92
2018-12-26T05:53:17.822Z,34.65
2018-12-26T05:54:41.935Z,31.62
2018-12-26T05:55:46.865Z,37.17
2018-12-26T05:56:51.764Z,31.85
2018-12-26T05:57:56.989Z,30.70
2018-12-26T05:59:01.912Z,33.53
2018-12-26T06:00:26.038Z,33.73
2018-12-26T06:03:00.605Z,29.02
2018-12-26T06:05:47.406Z,30.05
2018-12-26T06:10:25.019Z,30.43
2018-12-26T06:11:49.059Z,31.77
2018-12-26T06:13:13.038Z,32.15
2018-12-26T06:18:41.642Z,32.98
2018-12-26T06:21:11.230Z,31.07
2018-12-26T06:22:16.141Z,29.57
2018-12-26T06:23:21.053Z,27.40
2018-12-26T06:24:26.333Z,35.95
2018-12-26T06:29:45.590Z,27.75
2018-12-26T06:30:50.879Z,28.75
2018-12-26T06:31:55.794Z,31.20
2018-12-26T06:33:03.398Z,25.40
2018-12-26T06:34:08.307Z,33.58
2018-12-26T06:35:13.231Z,30.48
2018-12-26T06:36:18.137Z,29.18
2018-12-26T06:38:47.317Z,34.92
2018-12-26T06:39:52.235Z,39.18
2018-12-26T06:40:57.524Z,32.28
2018-12-26T06:42:21.494Z,29.05
2018-12-26T06:43:26.501Z,29.65
2018-12-26T06:44:50.778Z,31.60
2018-12-26T06:45:56.062Z,28.85
2018-12-26T06:47:01.304Z,26.65
2018-12-26T06:48:06.487Z,28.40
2018-12-26T06:49:11.396Z,32.23
2018-12-26T06:50:16.575Z,32.55
2018-12-26T06:51:21.481Z,28.10
2018-12-26T06:52:45.606Z,31.33
2018-12-26T06:53:50.591Z,28.50
2018-12-26T06:55:07.564Z,26.77
2018-12-26T06:56:12.549Z,31.77
2018-12-26T06:57:17.532Z,28.85
2018-12-26T06:58:22.444Z,25.35
2018-12-26T06:59:27.369Z,28.07
2018-12-26T07:02:15.471Z,27.98
2018-12-26T07:04:44.342Z,31.25
2018-12-26T07:05:49.244Z,27.82
2018-12-26T07:08:18.113Z,28.60
2018-12-26T07:09:23.308Z,29.52
2018-12-26T07:10:28.239Z,33.00
2018-12-26T07:12:57.092Z,27.58
2018-12-26T07:14:02.011Z,34.25
2018-12-26T07:17:08.384Z,30.15
2018-12-26T07:18:13.623Z,30.25
2018-12-26T07:20:42.471Z,28.57
2018-12-26T07:21:47.947Z,26.90
2018-12-26T07:23:13.744Z,27.73
2018-12-26T07:24:18.645Z,28.65
2018-12-26T07:25:23.551Z,25.08
2018-12-26T07:26:28.448Z,31.05
2018-12-26T07:28:57.326Z,31.05
2018-12-26T07:30:02.574Z,36.23
2018-12-26T07:31:07.505Z,26.20
2018-12-26T07:32:12.410Z,29.67
2018-12-26T07:33:17.313Z,28.87
2018-12-26T07:34:22.258Z,28.98
2018-12-26T07:35:27.179Z,26.90
2018-12-26T07:37:56.025Z,26.85
2018-12-26T07:39:00.928Z,23.38
2018-12-26T07:40:25.373Z,25.68
2018-12-26T07:41:49.645Z,25.15
2018-12-26T07:44:18.492Z,27.80
2018-12-26T07:46:47.822Z,26.12
2018-12-26T07:47:52.725Z,28.95
2018-12-26T07:50:21.842Z,25.05
2018-12-26T07:51:26.743Z,26.57
2018-12-26T07:52:31.678Z,27.85
2018-12-26T07:53:36.574Z,27.35
2018-12-26T07:54:41.735Z,28.77
2018-12-26T07:55:46.651Z,32.50
2018-12-26T07:57:03.592Z,37.13
2018-12-26T08:01:08.906Z,25.30
2018-12-26T08:02:32.872Z,25.08
2018-12-26T08:03:37.774Z,23.75
2018-12-26T08:10:32.106Z,31.02
2018-12-26T08:11:37.018Z,25.05
2018-12-26T08:12:41.927Z,24.87
2018-12-26T08:15:29.989Z,30.92
2018-12-26T08:17:58.847Z,26.87
2018-12-26T08:19:03.786Z,23.57
2018-12-26T08:20:27.774Z,25.00
2018-12-26T08:21:32.708Z,26.30
2018-12-26T08:22:56.821Z,24.32
2018-12-26T08:24:02.067Z,25.40
2018-12-26T08:25:07.045Z,24.30
2018-12-26T08:26:11.964Z,25.43
2018-12-26T08:27:16.928Z,22.90
2018-12-26T08:29:45.802Z,23.50
2018-12-26T08:31:09.982Z,24.47
2018-12-26T08:32:14.815Z,21.73
2018-12-26T08:33:19.815Z,26.15
2018-12-26T08:34:24.730Z,28.73
2018-12-26T08:35:29.912Z,24.18
2018-12-26T08:36:54.265Z,28.05
2018-12-26T08:40:02.794Z,26.95
2018-12-26T08:44:17.773Z,25.90
2018-12-26T08:45:22.705Z,29.40
2018-12-26T08:46:27.617Z,26.70
2018-12-26T08:47:32.528Z,24.45
2018-12-26T08:48:37.781Z,27.35
2018-12-26T08:52:36.361Z,25.43
2018-12-26T08:53:41.274Z,27.95
2018-12-26T08:56:10.133Z,25.82
2018-12-26T08:57:15.327Z,31.90
2018-12-26T08:58:20.247Z,25.72
2018-12-26T09:01:19.494Z,22.65
2018-12-26T09:05:35.472Z,21.87
2018-12-26T09:06:59.453Z,20.75
2018-12-26T09:08:23.440Z,23.67
2018-12-26T09:09:28.343Z,26.42
2018-12-26T09:10:33.585Z,28.05
2018-12-26T09:11:38.538Z,26.12
2018-12-26T09:14:07.371Z,23.87
2018-12-26T09:16:55.701Z,27.40
2018-12-26T09:18:00.607Z,24.47
2018-12-26T09:19:05.514Z,24.90
2018-12-26T09:20:29.485Z,24.32
2018-12-26T09:21:34.717Z,24.82
2018-12-26T09:22:39.646Z,25.77
2018-12-26T09:23:44.862Z,27.73
2018-12-26T09:24:49.762Z,31.33
2018-12-26T09:25:58.698Z,24.20
2018-12-26T09:27:06.662Z,25.48
2018-12-26T09:28:30.669Z,22.10
2018-12-26T09:29:35.587Z,24.25
2018-12-26T09:32:23.487Z,22.65
2018-12-26T09:33:28.976Z,21.45
2018-12-26T09:34:53.110Z,21.65
2018-12-26T09:35:58.016Z,25.50
2018-12-26T09:37:21.993Z,22.22
2018-12-26T09:38:26.932Z,27.65
2018-12-26T09:39:31.816Z,25.88
2018-12-26T09:42:07.084Z,26.27
2018-12-26T09:43:11.985Z,28.38
2018-12-26T09:44:16.938Z,25.72
2018-12-26T09:45:21.810Z,21.10
2018-12-26T09:46:26.716Z,23.85
2018-12-26T09:47:31.638Z,26.75
2018-12-26T09:48:38.599Z,23.07
2018-12-26T09:49:43.145Z,21.55
2018-12-26T09:50:48.044Z,21.85
2018-12-26T09:51:53.229Z,22.45
2018-12-26T09:52:58.390Z,26.42
2018-12-26T09:54:03.341Z,22.95
2018-12-26T09:55:08.402Z,21.93
2018-12-26T09:56:13.288Z,20.97
2018-12-26T09:57:18.297Z,22.93
2018-12-26T09:58:23.206Z,24.15
2018-12-26T09:59:28.104Z,22.52
2018-12-26T10:00:33.333Z,23.57
2018-12-26T10:01:38.295Z,23.32
2018-12-26T10:02:43.452Z,22.77
2018-12-26T10:03:48.363Z,26.77
2018-12-26T10:04:53.261Z,25.17
2018-12-26T10:05:58.171Z,25.48
2018-12-26T10:07:03.088Z,23.38
2018-12-26T10:08:08.002Z,26.60
2018-12-26T10:09:12.916Z,22.48
2018-12-26T10:10:17.883Z,23.77
2018-12-26T10:11:22.821Z,23.98
2018-12-26T10:12:27.735Z,24.87
2018-12-26T10:13:32.637Z,20.12
2018-12-26T10:14:37.555Z,26.02
2018-12-26T10:15:42.774Z,20.52
2018-12-26T10:16:47.752Z,25.08
2018-12-26T10:17:52.646Z,23.57
2018-12-26T10:18:57.792Z,22.13
2018-12-26T10:20:02.712Z,22.30
2018-12-26T10:21:07.603Z,24.60
2018-12-26T10:22:12.513Z,24.10
2018-12-26T10:23:17.418Z,21.57
2018-12-26T10:24:22.316Z,26.20
2018-12-26T10:25:27.237Z,21.55
2018-12-26T10:26:32.138Z,24.07
2018-12-26T10:27:37.381Z,24.37
2018-12-26T10:28:42.277Z,29.40
2018-12-26T10:29:47.184Z,22.48
2018-12-26T10:30:52.619Z,20.55
2018-12-26T10:31:57.490Z,24.30
2018-12-26T10:33:02.476Z,27.30
2018-12-26T10:34:07.379Z,22.85
2018-12-26T10:35:12.265Z,23.32
2018-12-26T10:36:17.170Z,23.25
2018-12-26T10:37:22.089Z,21.37
2018-12-26T10:38:26.978Z,20.90
2018-12-26T10:39:31.878Z,22.35
2018-12-26T10:40:37.026Z,21.82
2018-12-26T10:41:42.201Z,21.33
2018-12-26T10:42:47.334Z,18.55
2018-12-26T10:43:52.230Z,21.82
2018-12-26T10:44:57.395Z,19.70
2018-12-26T10:46:02.279Z,20.37
2018-12-26T10:47:07.764Z,25.88
2018-12-26T10:48:12.918Z,24.00
2018-12-26T10:49:17.802Z,21.52
2018-12-26T10:50:22.709Z,21.52
2018-12-26T10:51:27.610Z,21.05
2018-12-26T10:52:32.761Z,23.42
2018-12-26T10:53:37.692Z,20.60
2018-12-26T10:54:42.653Z,22.70
2018-12-26T10:55:47.552Z,22.52
2018-12-26T10:56:52.686Z,23.22
2018-12-26T10:57:57.618Z,24.75
2018-12-26T10:59:10.151Z,24.05
2018-12-26T11:00:11.521Z,20.57
2018-12-26T11:01:16.424Z,24.67
2018-12-26T11:02:21.324Z,20.10
2018-12-26T11:03:26.302Z,25.32
2018-12-26T11:04:31.400Z,21.42
2018-12-26T11:05:36.303Z,20.62
2018-12-26T11:06:41.202Z,23.20
2018-12-26T11:07:46.166Z,23.65
2018-12-26T11:08:51.223Z,22.17
2018-12-26T11:09:56.126Z,20.62
2018-12-26T11:11:01.026Z,21.68
2018-12-26T11:12:05.980Z,23.07
2018-12-26T11:13:10.874Z,19.85
2018-12-26T11:14:15.790Z,22.93
2018-12-26T11:15:20.691Z,23.40
2018-12-26T11:16:25.740Z,22.05
2018-12-26T11:17:31.163Z,21.17
2018-12-26T11:18:36.141Z,25.75
2018-12-26T11:19:41.137Z,20.00
2018-12-26T11:20:46.116Z,22.95
2018-12-26T11:21:51.048Z,22.32
2018-12-26T11:22:55.941Z,20.97
2018-12-26T11:24:00.830Z,19.52
2018-12-26T11:25:05.929Z,20.17
2018-12-26T11:26:10.826Z,22.13
2018-12-26T11:27:15.718Z,24.25
2018-12-26T11:28:20.680Z,22.85
2018-12-26T11:29:25.591Z,22.25
2018-12-26T11:30:30.518Z,22.93
2018-12-26T11:31:35.535Z,24.00
2018-12-26T11:32:40.588Z,22.50
2018-12-26T11:33:45.805Z,20.23
2018-12-26T11:34:50.790Z,19.67
2018-12-26T11:35:55.724Z,22.02
2018-12-26T11:37:01.227Z,22.73
2018-12-26T11:38:06.316Z,22.20
2018-12-26T11:39:11.219Z,21.02
2018-12-26T11:40:16.368Z,20.52
2018-12-26T11:41:21.361Z,21.62
2018-12-26T11:42:26.358Z,33.63
2018-12-26T11:43:31.404Z,19.42
2018-12-26T11:44:36.597Z,21.17
2018-12-26T11:45:41.505Z,30.12
2018-12-26T11:46:46.492Z,25.50
2018-12-26T11:47:51.401Z,23.52
2018-12-26T11:48:56.316Z,22.13
2018-12-26T11:50:01.290Z,20.65
2018-12-26T11:51:06.392Z,22.30
2018-12-26T11:52:11.582Z,22.65
2018-12-26T11:53:16.738Z,28.47
2018-12-26T11:54:21.883Z,20.30
2018-12-26T11:55:26.786Z,22.73
2018-12-26T11:56:32.000Z,26.62
2018-12-26T11:57:37.032Z,22.67
2018-12-26T11:58:41.914Z,20.15
2018-12-26T11:59:46.862Z,20.72
2018-12-26T12:00:52.019Z,20.77
2018-12-26T12:01:57.251Z,21.00
2018-12-26T12:03:02.315Z,24.10
2018-12-26T12:04:07.452Z,23.12
2018-12-26T12:05:12.428Z,21.02
2018-12-26T12:06:17.599Z,23.65
2018-12-26T12:07:22.731Z,20.37
2018-12-26T12:08:27.722Z,21.37
2018-12-26T12:09:32.749Z,22.80
2018-12-26T12:10:37.715Z,23.42
2018-12-26T12:11:43.023Z,21.42
2018-12-26T12:12:48.052Z,20.55
2018-12-26T12:13:53.381Z,26.80
2018-12-26T12:14:58.517Z,33.18
2018-12-26T12:16:03.562Z,22.65
2018-12-26T12:17:08.614Z,22.93
2018-12-26T12:18:13.825Z,22.80
2018-12-26T12:19:18.810Z,20.90
2018-12-26T12:20:23.872Z,24.02
2018-12-26T12:21:28.774Z,20.72
2018-12-26T12:22:33.669Z,19.73
2018-12-26T12:23:38.565Z,24.18
2018-12-26T12:24:43.550Z,21.87
2018-12-26T12:25:48.600Z,21.42
2018-12-26T12:26:53.539Z,21.37
2018-12-26T12:27:58.426Z,24.77
2018-12-26T12:29:03.417Z,21.30
2018-12-26T12:30:08.518Z,23.38
2018-12-26T12:31:13.414Z,20.90
2018-12-26T12:32:18.402Z,21.17
2018-12-26T12:33:23.458Z,17.82
2018-12-26T12:34:28.358Z,19.12
2018-12-26T12:35:33.436Z,24.75
2018-12-26T12:36:38.477Z,23.98
2018-12-26T12:37:43.913Z,21.80
2018-12-26T12:38:48.895Z,31.75
2018-12-26T12:39:53.885Z,20.35
2018-12-26T12:40:58.965Z,17.12
2018-12-26T12:42:03.870Z,20.77
2018-12-26T12:43:08.925Z,24.60
2018-12-26T12:44:14.204Z,24.82
2018-12-26T12:45:19.280Z,20.92
2018-12-26T12:46:24.403Z,23.38
2018-12-26T12:47:29.478Z,20.00
2018-12-26T12:48:34.653Z,24.05
2018-12-26T12:49:39.626Z,23.20
2018-12-26T12:50:44.521Z,24.90
2018-12-26T12:51:49.700Z,22.10
2018-12-26T12:52:54.613Z,20.85
2018-12-26T12:53:59.515Z,22.32
2018-12-26T12:55:04.600Z,22.77
2018-12-26T12:56:12.223Z,26.87
2018-12-26T12:57:16.280Z,18.48
2018-12-26T12:58:21.372Z,21.52
2018-12-26T12:59:26.375Z,20.08
2018-12-26T13:00:31.514Z,16.80
2018-12-26T13:01:36.573Z,19.32
2018-12-26T13:02:41.564Z,22.58
2018-12-26T13:03:46.903Z,20.32
2018-12-26T13:04:51.861Z,21.48
2018-12-26T13:05:56.808Z,18.35
2018-12-26T13:07:02.282Z,19.77
2018-12-26T13:08:07.309Z,17.62
2018-12-26T13:09:12.226Z,17.32
2018-12-26T13:10:17.301Z,18.60
2018-12-26T13:11:22.205Z,18.80
2018-12-26T13:12:27.110Z,17.23
2018-12-26T13:13:32.104Z,21.05
2018-12-26T13:14:37.000Z,18.73
2018-12-26T13:15:42.171Z,20.00
2018-12-26T13:16:47.077Z,16.55
2018-12-26T13:17:52.037Z,16.40
2018-12-26T13:18:57.201Z,18.85
2018-12-26T13:20:02.159Z,19.05
2018-12-26T13:21:07.064Z,20.55
2018-12-26T13:22:11.971Z,19.30
2018-12-26T13:23:16.929Z,18.90
2018-12-26T13:24:21.848Z,20.45
2018-12-26T13:25:27.009Z,19.48
2018-12-26T13:26:31.913Z,17.57
2018-12-26T13:27:36.827Z,18.42
2018-12-26T13:28:41.743Z,18.23
2018-12-26T13:29:53.765Z,16.35
2018-12-26T13:30:53.582Z,16.23
2018-12-26T13:31:58.806Z,19.60
2018-12-26T13:33:04.039Z,16.60
2018-12-26T13:34:08.935Z,18.25
2018-12-26T13:35:13.848Z,17.12
2018-12-26T13:36:19.075Z,17.10
2018-12-26T13:37:24.237Z,21.57
2018-12-26T13:38:29.130Z,19.25
2018-12-26T13:39:34.058Z,20.97
2018-12-26T13:40:38.984Z,16.95
2018-12-26T13:41:43.960Z,21.40
2018-12-26T13:42:48.886Z,17.52
2018-12-26T13:43:54.335Z,17.02
2018-12-26T13:44:59.229Z,21.90
2018-12-26T13:46:04.160Z,18.62
2018-12-26T13:47:09.145Z,20.20
2018-12-26T13:48:14.304Z,17.30
2018-12-26T13:49:19.202Z,18.50
2018-12-26T13:50:24.675Z,17.25
2018-12-26T13:51:29.869Z,20.60
2018-12-26T13:52:34.772Z,22.25
2018-12-26T13:53:39.674Z,19.32
2018-12-26T13:54:44.656Z,19.10
2018-12-26T13:55:49.815Z,17.57
2018-12-26T13:56:54.971Z,18.20
2018-12-26T13:58:00.197Z,16.55
2018-12-26T13:59:05.369Z,20.97
2018-12-26T14:00:11.263Z,20.17
2018-12-26T14:01:16.156Z,17.50
2018-12-26T14:02:21.324Z,16.75
2018-12-26T14:03:26.982Z,19.45
2018-12-26T14:04:31.886Z,21.52
2018-12-26T14:05:36.798Z,22.00
2018-12-26T14:06:41.705Z,16.35
2018-12-26T14:07:46.641Z,20.20
2018-12-26T14:08:51.782Z,17.17
2018-12-26T14:09:56.677Z,18.75
2018-12-26T14:11:01.585Z,19.20
2018-12-26T14:12:06.484Z,20.30
2018-12-26T14:13:11.485Z,19.77
2018-12-26T14:14:16.386Z,17.73
2018-12-26T14:15:21.292Z,18.15
2018-12-26T14:16:26.220Z,17.87
2018-12-26T14:17:31.258Z,18.02
2018-12-26T14:18:36.242Z,20.48
2018-12-26T14:19:41.151Z,20.23
2018-12-26T14:20:46.204Z,18.95
2018-12-26T14:21:51.101Z,16.52
2018-12-26T14:22:56.645Z,19.42
2018-12-26T14:24:01.810Z,21.97
2018-12-26T14:25:07.942Z,18.27
2018-12-26T14:26:12.944Z,20.37
2018-12-26T14:27:17.850Z,19.30
2018-12-26T14:28:22.749Z,22.93
2018-12-26T14:29:27.667Z,16.37
2018-12-26T14:30:32.666Z,17.05
2018-12-26T14:31:37.572Z,18.80
2018-12-26T14:32:42.707Z,20.82
2018-12-26T14:33:47.680Z,19.40
2018-12-26T14:34:52.602Z,18.98
2018-12-26T14:35:59.216Z,19.42
2018-12-26T14:37:04.132Z,17.87
2018-12-26T14:38:09.044Z,21.30
2018-12-26T14:39:13.956Z,18.00
2018-12-26T14:40:18.869Z,20.57
2018-12-26T14:41:23.776Z,21.20
2018-12-26T14:42:28.679Z,20.30
2018-12-26T14:43:33.638Z,16.10
2018-12-26T14:44:38.561Z,20.60
2018-12-26T14:45:43.541Z,21.40
2018-12-26T14:46:48.442Z,21.02
2018-12-26T14:47:53.671Z,19.17
2018-12-26T14:48:58.593Z,18.02
2018-12-26T14:50:03.906Z,18.17
2018-12-26T14:51:08.814Z,20.57
2018-12-26T14:52:13.726Z,19.65
2018-12-26T14:53:18.618Z,20.40
2018-12-26T14:54:23.591Z,20.10
2018-12-26T14:55:28.564Z,22.17
2018-12-26T14:56:33.628Z,24.12
2018-12-26T14:57:38.786Z,19.57
2018-12-26T14:58:43.672Z,20.85
2018-12-26T14:59:48.599Z,21.95
2018-12-26T15:00:53.575Z,25.72
2018-12-26T15:01:58.518Z,21.97
2018-12-26T15:03:03.415Z,22.02
2018-12-26T15:04:08.319Z,21.35
2018-12-26T15:05:13.219Z,20.97
2018-12-26T15:06:18.190Z,21.25
2018-12-26T15:07:23.128Z,21.02
2018-12-26T15:08:28.097Z,20.55
2018-12-26T15:09:33.372Z,20.50
2018-12-26T15:10:38.276Z,21.12
2018-12-26T15:11:43.183Z,19.02
2018-12-26T15:12:48.108Z,21.07
2018-12-26T15:13:53.004Z,19.65
2018-12-26T15:14:58.015Z,22.80
2018-12-26T15:16:03.168Z,22.20
2018-12-26T15:17:08.070Z,20.50
2018-12-26T15:18:13.255Z,20.25
2018-12-26T15:19:19.706Z,20.20
2018-12-26T15:20:25.200Z,23.25
2018-12-26T15:21:30.131Z,20.95
2018-12-26T15:22:35.618Z,22.48
2018-12-26T15:23:40.544Z,21.73
2018-12-26T15:24:45.445Z,25.32
2018-12-26T15:25:50.620Z,18.85
2018-12-26T15:26:55.562Z,21.80
2018-12-26T15:28:00.477Z,20.48
2018-12-26T15:29:05.467Z,22.87
2018-12-26T15:30:10.385Z,20.72
2018-12-26T15:31:15.411Z,20.82
2018-12-26T15:32:20.322Z,20.20
2018-12-26T15:33:25.565Z,20.62
2018-12-26T15:34:30.803Z,18.55
2018-12-26T15:35:35.952Z,24.77
2018-12-26T15:36:41.064Z,18.10
2018-12-26T15:37:46.033Z,17.82
2018-12-26T15:38:51.030Z,24.18
2018-12-26T15:39:56.227Z,24.92
2018-12-26T15:41:01.198Z,22.10
2018-12-26T15:42:06.197Z,21.60
2018-12-26T15:43:11.096Z,23.00
2018-12-26T15:44:16.137Z,23.55
2018-12-26T15:45:21.068Z,21.10
2018-12-26T15:46:26.048Z,24.18
2018-12-26T15:47:30.943Z,27.35
2018-12-26T15:48:36.103Z,23.10
2018-12-26T15:49:41.043Z,22.58
2018-12-26T15:50:45.957Z,21.73
2018-12-26T15:51:51.092Z,19.17
2018-12-26T15:52:56.085Z,20.90
2018-12-26T15:54:01.242Z,17.57
2018-12-26T15:55:06.362Z,21.33
2018-12-26T15:56:11.595Z,25.77
2018-12-26T15:57:17.146Z,23.65
2018-12-26T15:58:22.178Z,21.82
2018-12-26T15:59:27.642Z,23.57
2018-12-26T16:00:37.335Z,25.62
2018-12-26T16:01:39.305Z,27.40
2018-12-26T16:02:44.249Z,19.98
2018-12-26T16:03:49.386Z,24.60
2018-12-26T16:04:54.297Z,25.88
2018-12-26T16:05:59.203Z,24.37
2018-12-26T16:07:04.223Z,25.35
2018-12-26T16:08:09.220Z,22.95
2018-12-26T16:09:14.209Z,28.85
2018-12-26T16:10:19.145Z,22.60
2018-12-26T16:11:24.342Z,25.60
2018-12-26T16:12:29.505Z,23.35
2018-12-26T16:13:34.421Z,22.62
2018-12-26T16:14:39.343Z,23.18
2018-12-26T16:15:44.399Z,25.95
2018-12-26T16:16:49.391Z,26.02
2018-12-26T16:17:54.332Z,24.60
2018-12-26T16:18:59.322Z,24.20
2018-12-26T16:20:04.657Z,22.48
2018-12-26T16:21:10.426Z,23.65
2018-12-26T16:22:15.330Z,22.93
2018-12-26T16:23:20.482Z,22.98
2018-12-26T16:24:25.376Z,22.05
2018-12-26T16:25:30.292Z,27.90
2018-12-26T16:26:35.491Z,25.15
2018-12-26T16:27:40.398Z,26.12
2018-12-26T16:28:45.323Z,22.55
2018-12-26T16:29:50.290Z,27.20
2018-12-26T16:30:55.278Z,24.43
2018-12-26T16:32:00.272Z,25.23
2018-12-26T16:33:05.177Z,25.43
2018-12-26T16:34:10.345Z,27.82
2018-12-26T16:35:15.245Z,28.55
2018-12-26T16:36:20.469Z,25.92
2018-12-26T16:37:25.649Z,28.38
2018-12-26T16:38:30.803Z,26.10
2018-12-26T16:39:36.117Z,27.73
2018-12-26T16:40:41.559Z,31.10
2018-12-26T16:41:46.468Z,28.15
2018-12-26T16:42:51.374Z,24.55
2018-12-26T16:43:56.290Z,25.35
2018-12-26T16:45:01.476Z,24.20
2018-12-26T16:46:06.704Z,28.67
2018-12-26T16:47:11.926Z,25.77
2018-12-26T16:48:16.909Z,26.12
2018-12-26T16:49:21.803Z,26.75
2018-12-26T16:50:27.393Z,24.35
2018-12-26T16:51:32.282Z,24.95
2018-12-26T16:52:37.177Z,27.80
2018-12-26T16:53:42.149Z,26.95
2018-12-26T16:54:47.054Z,25.70
2018-12-26T16:55:52.036Z,27.27
2018-12-26T16:56:57.225Z,22.77
2018-12-26T16:58:02.230Z,24.75
2018-12-26T16:59:07.202Z,26.73
2018-12-26T17:00:12.292Z,24.45
2018-12-26T17:01:17.285Z,25.50
2018-12-26T17:02:22.185Z,30.50
2018-12-26T17:03:27.088Z,31.48
2018-12-26T17:04:32.140Z,24.85
2018-12-26T17:05:37.045Z,26.90
2018-12-26T17:06:41.978Z,24.87
2018-12-26T17:07:46.890Z,24.07
2018-12-26T17:08:52.038Z,29.40
2018-12-26T17:09:56.957Z,22.22
2018-12-26T17:11:01.947Z,24.55
2018-12-26T17:12:07.144Z,29.65
2018-12-26T17:13:12.043Z,22.82
2018-12-26T17:14:17.019Z,25.20
2018-12-26T17:15:21.951Z,23.40
2018-12-26T17:16:27.133Z,24.00